createdAt,value
2019-03-13T00:01:23.543Z,0.90
2019-03-13T00:03:52.869Z,1.10
2019-03-13T00:06:23.187Z,0.70
2019-03-13T00:08:53.518Z,0.93
2019-03-13T00:11:24.040Z,0.60
2019-03-13T00:13:54.366Z,0.90
2019-03-13T00:16:24.894Z,0.93
2019-03-13T00:18:55.242Z,0.60
2019-03-13T00:21:25.319Z,0.60
2019-03-13T00:23:55.733Z,1.07
2019-03-13T00:26:25.913Z,0.50
2019-03-13T00:28:56.108Z,0.70
2019-03-13T00:31:26.426Z,0.70
2019-03-13T00:33:56.522Z,0.40
2019-03-13T00:36:26.847Z,0.90
2019-03-13T00:38:57.197Z,0.70
2019-03-13T00:41:27.517Z,1.30
2019-03-13T00:43:57.841Z,0.93
2019-03-13T00:46:28.303Z,0.77
2019-03-13T00:48:58.490Z,0.90
2019-03-13T00:51:28.714Z,1.00
2019-03-13T00:53:59.035Z,1.83
2019-03-13T00:56:29.360Z,1.67
2019-03-13T00:58:59.683Z,1.13
2019-03-13T01:01:31.451Z,1.60
2019-03-13T01:04:03.405Z,2.17
2019-03-13T01:06:35.163Z,1.30
2019-03-13T01:09:07.327Z,1.40
2019-03-13T01:11:37.663Z,1.57
2019-03-13T01:14:08.159Z,1.77
2019-03-13T01:16:38.511Z,2.87
2019-03-13T01:19:09.033Z,1.97
2019-03-13T01:21:39.360Z,1.80
2019-03-13T01:24:09.579Z,4.37
2019-03-13T01:26:40.726Z,4.00
2019-03-13T01:29:11.048Z,2.87
2019-03-13T01:31:51.486Z,4.00
2019-03-13T01:34:23.473Z,3.13
2019-03-13T01:36:53.793Z,3.93
2019-03-13T01:39:24.327Z,3.23
2019-03-13T01:41:54.649Z,5.10
2019-03-13T01:44:24.971Z,3.93
2019-03-13T01:46:55.295Z,4.80
2019-03-13T01:49:25.622Z,5.73
2019-03-13T01:51:55.991Z,4.33
2019-03-13T01:54:26.268Z,6.37
2019-03-13T01:56:56.901Z,6.40
2019-03-13T01:59:26.978Z,6.27
2019-03-13T02:01:57.342Z,6.30
2019-03-13T02:04:27.752Z,5.93
2019-03-13T02:06:58.195Z,5.90
2019-03-13T02:09:28.659Z,5.70
2019-03-13T02:11:59.071Z,5.77
2019-03-13T02:14:29.780Z,5.70
2019-03-13T02:17:00.107Z,6.40
2019-03-13T02:19:30.428Z,6.20
2019-03-13T02:22:00.761Z,4.83
2019-03-13T02:24:31.487Z,5.50
2019-03-13T02:27:01.811Z,5.93
2019-03-13T02:29:32.138Z,7.13
2019-03-13T02:32:02.461Z,5.70
2019-03-13T02:34:32.788Z,5.20
2019-03-13T02:37:03.317Z,4.47
2019-03-13T02:39:33.637Z,7.90
2019-03-13T02:42:03.963Z,4.57
2019-03-13T02:44:34.289Z,5.27
2019-03-13T02:47:04.611Z,4.87
2019-03-13T02:49:34.935Z,5.23
2019-03-13T02:52:05.273Z,3.80
2019-03-13T02:54:35.790Z,4.67
2019-03-13T02:57:05.928Z,4.20
2019-03-13T02:59:36.232Z,5.03
2019-03-13T03:02:08.241Z,4.80
2019-03-13T03:04:38.725Z,5.03
2019-03-13T03:07:12.655Z,4.87
2019-03-13T03:09:40.802Z,6.60
2019-03-13T03:12:11.133Z,4.70
2019-03-13T03:14:44.118Z,4.57
2019-03-13T03:17:14.333Z,5.03
2019-03-13T03:19:44.492Z,4.70
2019-03-13T03:22:14.982Z,3.80
2019-03-13T03:24:45.304Z,3.50
2019-03-13T03:27:15.631Z,3.60
2019-03-13T03:29:45.881Z,4.83
2019-03-13T03:32:16.075Z,4.70
2019-03-13T03:34:46.409Z,4.17
2019-03-13T03:37:16.723Z,4.80
2019-03-13T03:39:48.069Z,3.83
2019-03-13T03:42:18.496Z,3.70
2019-03-13T03:44:48.826Z,3.60
2019-03-13T03:47:19.148Z,4.97
2019-03-13T03:49:49.472Z,4.17
2019-03-13T03:52:19.792Z,4.37
2019-03-13T03:54:53.189Z,3.97
2019-03-13T03:57:23.287Z,4.90
2019-03-13T03:59:53.630Z,4.17
2019-03-13T04:02:23.785Z,4.37
2019-03-13T04:04:54.278Z,5.13
2019-03-13T04:07:24.810Z,5.03
2019-03-13T04:09:55.131Z,5.60
2019-03-13T04:12:26.297Z,5.27
2019-03-13T04:14:56.601Z,5.00
2019-03-13T04:17:27.032Z,4.70
2019-03-13T04:19:57.347Z,5.90
2019-03-13T04:22:27.574Z,6.00
2019-03-13T04:25:00.694Z,5.40
2019-03-13T04:27:31.089Z,5.57
2019-03-13T04:30:01.629Z,5.73
2019-03-13T04:32:31.844Z,6.00
2019-03-13T04:35:02.369Z,4.83
2019-03-13T04:37:32.586Z,5.60
2019-03-13T04:40:02.808Z,6.97
2019-03-13T04:42:33.236Z,5.50
2019-03-13T04:45:03.562Z,5.07
2019-03-13T04:47:33.884Z,5.77
2019-03-13T04:50:06.041Z,5.17
2019-03-13T04:52:36.582Z,6.73
2019-03-13T04:55:09.080Z,4.83
2019-03-13T04:57:39.276Z,5.80
2019-03-13T05:00:12.877Z,6.47
2019-03-13T05:02:43.202Z,4.60
2019-03-13T05:05:37.227Z,6.50
2019-03-13T05:08:07.706Z,6.03
2019-03-13T05:10:38.236Z,5.60
2019-03-13T05:13:08.710Z,5.73
2019-03-13T05:15:39.299Z,5.60
2019-03-13T05:18:09.618Z,6.87
2019-03-13T05:20:39.944Z,6.30
2019-03-13T05:23:10.287Z,6.37
2019-03-13T05:25:41.919Z,6.53
2019-03-13T05:28:12.144Z,7.07
2019-03-13T05:30:42.466Z,5.60
2019-03-13T05:33:12.797Z,6.17
2019-03-13T05:35:43.013Z,7.60
2019-03-13T05:38:13.151Z,7.20
2019-03-13T05:40:43.232Z,6.87
2019-03-13T05:43:13.472Z,8.07
2019-03-13T05:45:52.906Z,7.10
2019-03-13T05:48:23.234Z,6.77
2019-03-13T05:50:53.665Z,8.53
2019-03-13T05:53:24.087Z,7.47
2019-03-13T05:55:54.690Z,7.50
2019-03-13T05:58:24.937Z,5.93
2019-03-13T06:00:55.261Z,6.90
2019-03-13T06:03:25.483Z,6.10
2019-03-13T06:05:55.809Z,6.77
2019-03-13T06:08:26.155Z,6.47
2019-03-13T06:10:56.458Z,20.23
2019-03-13T06:13:26.984Z,15.20
2019-03-13T06:15:57.308Z,11.00
2019-03-13T06:18:27.534Z,8.83
2019-03-13T06:20:57.854Z,8.03
2019-03-13T06:23:28.179Z,8.67
2019-03-13T06:25:58.405Z,5.63
2019-03-13T06:28:28.827Z,5.27
2019-03-13T06:30:59.158Z,6.10
2019-03-13T06:33:29.369Z,5.73
2019-03-13T06:36:01.132Z,5.70
2019-03-13T06:38:32.741Z,4.17
2019-03-13T06:41:05.193Z,4.23
2019-03-13T06:43:34.584Z,5.00
2019-03-13T06:46:04.988Z,4.80
2019-03-13T06:48:35.209Z,4.57
2019-03-13T06:51:05.735Z,5.30
2019-03-13T06:53:36.066Z,4.00
2019-03-13T06:56:06.392Z,4.33
2019-03-13T06:58:38.142Z,5.03
2019-03-13T07:01:16.043Z,4.60
2019-03-13T07:03:47.802Z,5.30
2019-03-13T07:06:22.632Z,6.07
2019-03-13T07:09:06.478Z,4.80
2019-03-13T07:11:38.439Z,5.10
2019-03-13T07:14:12.860Z,5.13
2019-03-13T07:16:50.758Z,5.10
2019-03-13T07:19:22.408Z,4.50
2019-03-13T07:22:00.416Z,7.63
2019-03-13T07:24:37.700Z,5.60
2019-03-13T07:27:25.458Z,5.17
2019-03-13T07:29:57.383Z,6.03
2019-03-13T07:32:44.522Z,6.83
2019-03-13T07:35:19.772Z,5.80
2019-03-13T07:37:54.379Z,5.77
2019-03-13T07:40:29.207Z,7.23
2019-03-13T07:43:10.384Z,6.03
2019-03-13T07:45:42.111Z,7.43
2019-03-13T07:48:22.808Z,6.83
2019-03-13T07:50:57.432Z,7.00
2019-03-13T07:53:45.784Z,6.90
2019-03-13T07:56:26.448Z,8.50
2019-03-13T07:58:58.325Z,6.40
2019-03-13T08:01:30.171Z,6.07
2019-03-13T08:04:11.141Z,6.70
2019-03-13T08:06:43.104Z,7.30
2019-03-13T08:09:20.802Z,5.50
2019-03-13T08:13:02.530Z,27.77
2019-03-13T08:15:33.741Z,40.67
2019-03-13T08:18:20.387Z,17.50
2019-03-13T08:20:57.535Z,13.00
2019-03-13T08:23:40.963Z,7.43
2019-03-13T08:26:21.363Z,5.00
2019-03-13T08:28:52.876Z,6.50
2019-03-13T08:31:24.227Z,6.30
2019-03-13T08:33:55.402Z,5.00
2019-03-13T08:36:26.819Z,6.80
2019-03-13T08:38:58.178Z,5.73
2019-03-13T08:41:44.496Z,5.00
2019-03-13T08:44:15.802Z,5.27
2019-03-13T08:46:49.822Z,5.10
2019-03-13T08:49:21.375Z,6.20
2019-03-13T08:52:01.856Z,3.73
2019-03-13T08:54:33.082Z,4.50
2019-03-13T08:57:19.585Z,5.57
2019-03-13T08:59:50.932Z,6.20
2019-03-13T09:02:22.232Z,4.50
2019-03-13T09:04:53.668Z,4.50
2019-03-13T09:07:42.927Z,4.70
2019-03-13T09:10:15.711Z,4.60
2019-03-13T09:12:46.858Z,4.40
2019-03-13T09:15:33.734Z,5.50
2019-03-13T09:18:21.297Z,4.03
2019-03-13T09:21:04.519Z,4.87
2019-03-13T09:23:38.838Z,4.80
2019-03-13T09:26:13.056Z,5.10
2019-03-13T09:28:59.424Z,4.93
2019-03-13T09:31:39.575Z,3.63
2019-03-13T09:34:26.091Z,4.57
2019-03-13T09:36:57.365Z,4.13
2019-03-13T09:39:40.299Z,4.60
2019-03-13T09:42:12.016Z,4.20
2019-03-13T09:44:43.302Z,5.50
2019-03-13T09:47:30.985Z,5.53
2019-03-13T09:50:02.329Z,5.03
2019-03-13T09:52:42.936Z,4.20
2019-03-13T09:55:14.447Z,4.50
2019-03-13T09:57:57.420Z,5.00
2019-03-13T10:00:44.256Z,5.07
2019-03-13T10:03:29.658Z,5.43
2019-03-13T10:06:00.934Z,5.00
2019-03-13T10:08:48.940Z,4.27
2019-03-13T10:11:22.903Z,4.40
2019-03-13T10:14:00.066Z,4.07
2019-03-13T10:16:47.178Z,3.60
2019-03-13T10:19:21.057Z,3.23
2019-03-13T10:21:55.479Z,3.83
2019-03-13T10:24:44.679Z,3.10
2019-03-13T10:27:18.797Z,3.80
2019-03-13T10:29:56.558Z,4.70
2019-03-13T10:32:30.566Z,3.73
2019-03-13T10:35:08.255Z,5.07
2019-03-13T10:37:39.436Z,4.40
2019-03-13T10:40:27.785Z,4.57
2019-03-13T10:43:17.533Z,4.57
2019-03-13T10:45:54.617Z,4.80
2019-03-13T10:48:26.006Z,6.20
2019-03-13T10:51:07.585Z,4.00
2019-03-13T10:53:50.981Z,4.53
2019-03-13T10:56:38.446Z,3.20
2019-03-13T10:59:15.729Z,3.10
2019-03-13T11:02:03.437Z,3.20
2019-03-13T11:04:34.779Z,3.20
2019-03-13T11:07:22.953Z,3.93
2019-03-13T11:10:00.468Z,3.20
2019-03-13T11:12:40.901Z,3.10
2019-03-13T11:15:24.334Z,2.60
2019-03-13T11:17:58.208Z,4.07
2019-03-13T11:20:29.587Z,2.13
2019-03-13T11:23:09.738Z,1.73
2019-03-13T11:25:43.653Z,2.20
2019-03-13T11:28:15.072Z,2.87
2019-03-13T11:30:50.730Z,2.90
2019-03-13T11:33:37.351Z,2.23
2019-03-13T11:36:17.784Z,1.97
2019-03-13T11:38:58.145Z,2.10
2019-03-13T11:41:35.432Z,2.40
2019-03-13T11:44:06.983Z,2.10
2019-03-13T11:46:40.993Z,2.10
2019-03-13T11:49:21.550Z,0.80
2019-03-13T11:52:01.541Z,2.37
2019-03-13T11:54:32.684Z,0.90
2019-03-13T11:57:16.012Z,1.50
2019-03-13T11:59:48.488Z,0.97
2019-03-13T12:02:36.418Z,1.10
2019-03-13T12:05:11.937Z,2.10
2019-03-13T12:07:43.903Z,2.03
2019-03-13T12:10:18.153Z,1.60
2019-03-13T12:13:04.650Z,2.70
2019-03-13T12:15:35.791Z,2.27
2019-03-13T12:18:22.264Z,2.13
2019-03-13T12:20:59.678Z,1.97
2019-03-13T12:23:34.179Z,2.03
2019-03-13T12:26:05.729Z,2.10
2019-03-13T12:28:46.018Z,2.20
2019-03-13T12:31:20.345Z,3.67
2019-03-13T12:33:54.447Z,2.07
2019-03-13T12:36:25.702Z,2.03
2019-03-13T12:38:59.620Z,1.70
2019-03-13T12:41:37.103Z,2.07
2019-03-13T12:44:08.243Z,1.77
2019-03-13T12:46:39.654Z,1.53
2019-03-13T12:49:16.879Z,1.43
2019-03-13T12:51:51.850Z,1.20
2019-03-13T12:54:40.739Z,1.20
2019-03-13T12:57:27.123Z,1.27
2019-03-13T12:59:58.585Z,1.97
2019-03-13T13:02:35.398Z,2.20
2019-03-13T13:05:16.676Z,2.10
2019-03-13T13:08:06.289Z,3.37
2019-03-13T13:10:54.050Z,2.93
2019-03-13T13:13:28.675Z,2.97
2019-03-13T13:16:15.212Z,2.20
2019-03-13T13:18:51.955Z,2.27
2019-03-13T13:21:21.899Z,3.20
2019-03-13T13:23:51.683Z,2.20
2019-03-13T13:26:21.373Z,2.10
2019-03-13T13:28:50.999Z,2.03
2019-03-13T13:31:20.680Z,3.13
2019-03-13T13:33:50.465Z,2.27
2019-03-13T13:36:20.218Z,2.00
2019-03-13T13:38:51.520Z,2.20
2019-03-13T13:41:21.263Z,1.33
2019-03-13T13:43:50.819Z,1.50
2019-03-13T13:46:22.855Z,1.33
2019-03-13T13:48:52.489Z,1.20
2019-03-13T13:51:22.309Z,3.47
2019-03-13T13:53:55.455Z,1.73
2019-03-13T13:56:23.330Z,1.20
2019-03-13T13:58:53.245Z,1.30
2019-03-13T14:01:22.909Z,1.10
2019-03-13T14:03:52.591Z,1.17
2019-03-13T14:06:22.375Z,1.23
2019-03-13T14:08:52.022Z,2.03
2019-03-13T14:11:21.801Z,1.27
2019-03-13T14:13:51.532Z,2.53
2019-03-13T14:16:21.214Z,2.07
2019-03-13T14:18:51.063Z,2.20
2019-03-13T14:21:20.837Z,2.23
2019-03-13T14:23:50.586Z,2.23
2019-03-13T14:26:20.187Z,3.70
2019-03-13T14:28:49.977Z,2.33
2019-03-13T14:31:19.675Z,3.03
2019-03-13T14:33:49.522Z,3.73
2019-03-13T14:36:19.298Z,4.70
2019-03-13T14:38:49.218Z,4.17
2019-03-13T14:41:18.860Z,3.90
2019-03-13T14:43:48.671Z,6.00
2019-03-13T14:46:18.245Z,4.07
2019-03-13T14:48:47.982Z,4.30
2019-03-13T14:51:17.601Z,4.30
2019-03-13T14:53:47.567Z,3.47
2019-03-13T14:56:17.427Z,2.63
2019-03-13T14:58:47.196Z,4.20
2019-03-13T15:01:16.908Z,3.90
2019-03-13T15:03:46.825Z,2.73
2019-03-13T15:06:16.471Z,2.77
2019-03-13T15:08:46.209Z,3.73
2019-03-13T15:11:15.902Z,3.13
2019-03-13T15:13:45.439Z,3.63
2019-03-13T15:16:15.012Z,2.93
2019-03-13T15:18:44.618Z,3.30
2019-03-13T15:21:14.414Z,2.23
2019-03-13T15:23:44.500Z,3.60
2019-03-13T15:26:14.547Z,2.27
2019-03-13T15:28:45.358Z,3.97
2019-03-13T15:31:15.297Z,2.40
2019-03-13T15:33:45.110Z,3.90
2019-03-13T15:36:15.042Z,3.77
2019-03-13T15:38:44.839Z,3.80
2019-03-13T15:41:14.451Z,3.73
2019-03-13T15:43:44.224Z,3.50
2019-03-13T15:46:14.240Z,5.30
2019-03-13T15:48:43.888Z,4.30
2019-03-13T15:51:13.504Z,4.20
2019-03-13T15:53:43.368Z,4.53
2019-03-13T15:56:13.077Z,5.10
2019-03-13T15:58:42.824Z,5.77
2019-03-13T16:01:12.710Z,4.30
2019-03-13T16:03:42.617Z,4.77
2019-03-13T16:06:12.362Z,4.20
2019-03-13T16:08:42.136Z,5.33
2019-03-13T16:11:11.982Z,5.00
2019-03-13T16:13:41.587Z,4.40
2019-03-13T16:16:12.370Z,3.60
2019-03-13T16:18:42.091Z,3.80
2019-03-13T16:21:11.652Z,3.33
2019-03-13T16:23:41.306Z,3.80
2019-03-13T16:26:10.979Z,4.63
2019-03-13T16:28:40.521Z,3.87
2019-03-13T16:31:11.058Z,3.20
2019-03-13T16:33:40.770Z,3.60
2019-03-13T16:36:10.410Z,5.20
2019-03-13T16:38:40.189Z,5.47
2019-03-13T16:41:09.907Z,4.50
2019-03-13T16:43:39.816Z,4.17
2019-03-13T16:46:09.624Z,5.07
2019-03-13T16:48:40.631Z,4.40
2019-03-13T16:51:10.309Z,4.60
2019-03-13T16:53:39.935Z,3.70
2019-03-13T16:56:09.693Z,5.30
2019-03-13T16:58:39.334Z,3.60
2019-03-13T17:01:08.945Z,5.30
2019-03-13T17:03:38.819Z,4.17
2019-03-13T17:06:08.476Z,5.20
2019-03-13T17:08:38.066Z,5.40
2019-03-13T17:11:07.776Z,5.93
2019-03-13T17:13:37.472Z,4.53
2019-03-13T17:16:07.314Z,5.20
2019-03-13T17:18:37.078Z,4.07
2019-03-13T17:21:06.997Z,3.10
2019-03-13T17:23:37.060Z,3.17
2019-03-13T17:26:06.658Z,3.20
2019-03-13T17:28:36.473Z,4.97
2019-03-13T17:31:06.241Z,3.20
2019-03-13T17:33:35.825Z,2.87
2019-03-13T17:36:05.487Z,3.07
2019-03-13T17:38:35.180Z,3.00
2019-03-13T17:41:04.874Z,4.67
2019-03-13T17:43:39.573Z,2.77
2019-03-13T17:46:07.706Z,4.27
2019-03-13T17:48:37.383Z,3.50
2019-03-13T17:51:07.197Z,3.50
2019-03-13T17:53:36.936Z,4.23
2019-03-13T17:56:07.061Z,4.13
2019-03-13T17:58:37.042Z,5.17
2019-03-13T18:01:06.788Z,3.27
2019-03-13T18:03:36.598Z,3.90
2019-03-13T18:06:06.314Z,4.43
2019-03-13T18:08:36.025Z,3.97
2019-03-13T18:11:05.728Z,4.57
2019-03-13T18:13:35.433Z,4.30
2019-03-13T18:16:05.438Z,7.30
2019-03-13T18:18:36.493Z,4.83
2019-03-13T18:21:06.423Z,4.43
2019-03-13T18:23:36.091Z,5.27
2019-03-13T18:26:07.433Z,5.23
2019-03-13T18:28:37.075Z,4.93
2019-03-13T18:31:08.524Z,4.63
2019-03-13T18:33:38.128Z,4.90
2019-03-13T18:36:07.939Z,3.53
2019-03-13T18:38:37.559Z,5.10
2019-03-13T18:41:08.598Z,5.30
2019-03-13T18:43:38.266Z,5.20
2019-03-13T18:46:08.115Z,3.80
2019-03-13T18:48:37.991Z,4.00
2019-03-13T18:51:07.687Z,5.93
2019-03-13T18:53:37.378Z,4.47
2019-03-13T18:56:07.219Z,4.27
2019-03-13T18:58:36.991Z,4.60
2019-03-13T19:01:06.988Z,5.53
2019-03-13T19:03:36.692Z,4.43
2019-03-13T19:06:06.499Z,3.70
2019-03-13T19:08:36.254Z,4.40
2019-03-13T19:11:06.195Z,4.27
2019-03-13T19:13:36.375Z,41.53
2019-03-13T19:16:06.645Z,37.10
2019-03-13T19:18:37.232Z,13.13
2019-03-13T19:21:07.885Z,11.77
2019-03-13T19:23:38.981Z,8.77
2019-03-13T19:26:12.147Z,9.37
2019-03-13T19:28:46.928Z,8.63
2019-03-13T19:31:19.330Z,8.60
2019-03-13T19:33:50.460Z,7.20
2019-03-13T19:36:21.112Z,6.60
2019-03-13T19:38:52.914Z,5.53
2019-03-13T19:41:23.190Z,4.97
2019-03-13T19:43:53.652Z,5.60
2019-03-13T19:46:24.366Z,5.43
2019-03-13T19:48:56.402Z,5.07
2019-03-13T19:51:35.253Z,4.17
2019-03-13T19:54:06.568Z,4.57
2019-03-13T19:56:37.531Z,5.20
2019-03-13T19:59:09.067Z,6.80
2019-03-13T20:01:43.097Z,4.63
2019-03-13T20:04:14.993Z,5.17
2019-03-13T20:06:47.930Z,2.67
2019-03-13T20:09:21.842Z,3.83
2019-03-13T20:11:52.191Z,3.23
2019-03-13T20:14:22.489Z,3.13
2019-03-13T20:16:52.813Z,2.67
2019-03-13T20:19:23.399Z,2.73
2019-03-13T20:21:53.716Z,2.20
2019-03-13T20:24:29.217Z,2.80
2019-03-13T20:27:00.137Z,2.70
2019-03-13T20:29:30.474Z,3.30
2019-03-13T20:32:01.272Z,3.33
2019-03-13T20:34:31.607Z,3.30
2019-03-13T20:37:02.066Z,3.10
2019-03-13T20:39:34.001Z,4.23
2019-03-13T20:42:04.588Z,3.20
2019-03-13T20:44:35.266Z,3.40
2019-03-13T20:47:05.817Z,3.00
2019-03-13T20:49:35.975Z,2.70
2019-03-13T20:52:06.566Z,2.97
2019-03-13T20:54:36.890Z,2.40
2019-03-13T20:57:07.217Z,2.87
2019-03-13T20:59:37.541Z,2.23
2019-03-13T21:02:08.067Z,2.13
2019-03-13T21:04:39.148Z,2.80
2019-03-13T21:07:09.657Z,2.33
2019-03-13T21:09:39.868Z,3.43
2019-03-13T21:12:09.981Z,3.97
2019-03-13T21:14:40.402Z,2.97
2019-03-13T21:17:10.727Z,3.83
2019-03-13T21:19:41.257Z,4.83
2019-03-13T21:22:11.580Z,2.97
2019-03-13T21:24:42.034Z,2.87
2019-03-13T21:27:12.599Z,3.10
2019-03-13T21:29:42.859Z,3.10
2019-03-13T21:32:13.191Z,3.27
2019-03-13T21:34:43.513Z,2.83
2019-03-13T21:37:13.935Z,2.87
2019-03-13T21:39:44.155Z,3.03
2019-03-13T21:42:16.125Z,2.57
2019-03-13T21:44:46.443Z,2.37
2019-03-13T21:47:16.780Z,2.30
2019-03-13T21:49:46.988Z,2.70
2019-03-13T21:52:17.413Z,2.00
2019-03-13T21:54:47.738Z,2.03
2019-03-13T21:57:17.856Z,4.00
2019-03-13T21:59:48.389Z,2.23
2019-03-13T22:02:18.712Z,2.53
2019-03-13T22:04:49.034Z,2.07
2019-03-13T22:07:19.396Z,2.73
2019-03-13T22:09:50.095Z,3.10
2019-03-13T22:12:20.415Z,2.83
2019-03-13T22:14:50.671Z,2.40
2019-03-13T22:17:21.067Z,2.10
2019-03-13T22:19:51.292Z,2.60
2019-03-13T22:22:21.412Z,3.00
2019-03-13T22:24:51.489Z,2.97
2019-03-13T22:27:21.745Z,2.50
2019-03-13T22:29:52.278Z,4.80
2019-03-13T22:32:22.598Z,4.03
2019-03-13T22:34:52.922Z,3.67
2019-03-13T22:37:23.251Z,3.90
2019-03-13T22:39:53.577Z,3.70
2019-03-13T22:42:23.720Z,3.53
2019-03-13T22:44:53.839Z,4.63
2019-03-13T22:47:23.936Z,4.30
2019-03-13T22:49:54.168Z,2.90
2019-03-13T22:52:24.371Z,2.60
2019-03-13T22:54:54.693Z,4.70
2019-03-13T22:57:25.224Z,3.93
2019-03-13T22:59:55.752Z,3.80
2019-03-13T23:02:26.083Z,4.63
2019-03-13T23:04:56.607Z,3.53
2019-03-13T23:07:27.237Z,3.70
2019-03-13T23:09:57.381Z,4.33
2019-03-13T23:12:30.281Z,5.33
2019-03-13T23:14:59.640Z,5.33
2019-03-13T23:17:29.965Z,5.43
2019-03-13T23:20:00.373Z,4.40
2019-03-13T23:22:30.844Z,4.20
2019-03-13T23:25:01.544Z,3.93
2019-03-13T23:27:31.711Z,3.67
2019-03-13T23:30:01.943Z,3.47
2019-03-13T23:32:32.055Z,3.93
2019-03-13T23:35:04.166Z,4.60
2019-03-13T23:37:37.033Z,3.27
2019-03-13T23:40:08.005Z,4.80
2019-03-13T23:42:38.608Z,4.20
2019-03-13T23:45:10.905Z,3.70
2019-03-13T23:47:41.225Z,3.40
2019-03-13T23:50:13.393Z,4.00
2019-03-13T23:52:43.539Z,3.43
2019-03-13T23:55:13.836Z,4.53
2019-03-13T23:57:44.080Z,4.47
